LFBA/AGF METAR and TAF weather

Enter ICAO airport designator
Station Type Date Time Source
LFBA METAR 2020/07/08 23:30 UTC NOAA

LFBA 082330Z AUTO 00000KT CAVOK 17/12 Q1017


Station Type Date Time Source
LFBA Decoded METAR 2020/07/08 23:30 UTC NOAA

Agen, France (LFBA) 44-11N 000-36E 60M
Jul 08, 2020 - 07:30 PM EDT / 2020.07.08 2330 UTC
Wind: Calm:0
Visibility: greater than 7 mile(s):0
Temperature: 62 F (17 C)
Dew Point: 53 F (12 C)
Relative Humidity: 72%
Pressure (altimeter): 30.03 in. Hg (1017 hPa)
ob: LFBA 082330Z AUTO 00000KT CAVOK 17/12 Q1017
cycle: 23

Station Type Date Time Source
LFBA TAF 2014/12/22 20:03 UTC NOAA

TAF
AMD TAF
AMD LFBA 222037Z 2220/2224 12007KT 0400 FG VV///
TEMPO 2220/2224 0100 PROB30
TEMPO 2222/2224 FZFG

Example: see airport list